createdAt,value
2018-08-12T00:04:13.031Z,1.42
2018-08-12T00:09:16.648Z,1.37
2018-08-12T00:14:20.257Z,1.30
2018-08-12T00:19:23.820Z,1.52
2018-08-12T00:24:27.249Z,0.98
2018-08-12T00:29:30.717Z,1.17
2018-08-12T00:34:34.242Z,1.22
2018-08-12T00:39:37.866Z,1.05
2018-08-12T00:44:41.413Z,1.10
2018-08-12T00:49:44.905Z,1.02
2018-08-12T00:54:48.448Z,1.20
2018-08-12T00:59:52.106Z,0.90
2018-08-12T01:04:55.814Z,1.42
2018-08-12T01:09:59.517Z,1.27
2018-08-12T01:15:03.141Z,0.80
2018-08-12T01:20:08.922Z,0.98
2018-08-12T01:25:12.642Z,0.97
2018-08-12T01:30:18.325Z,0.97
2018-08-12T01:35:21.869Z,0.98
2018-08-12T01:40:25.736Z,1.03
2018-08-12T01:45:29.300Z,0.98
2018-08-12T01:50:33.175Z,0.90
2018-08-12T01:55:36.665Z,0.88
2018-08-12T02:00:40.272Z,0.90
2018-08-12T02:05:43.876Z,1.20
2018-08-12T02:10:47.309Z,0.90
2018-08-12T02:15:50.877Z,1.00
2018-08-12T02:20:54.400Z,0.90
2018-08-12T02:25:58.053Z,1.00
2018-08-12T02:31:01.627Z,0.88
2018-08-12T02:36:05.264Z,0.72
2018-08-12T02:41:08.837Z,0.93
2018-08-12T02:46:12.401Z,1.10
2018-08-12T02:51:16.066Z,1.17
2018-08-12T02:56:19.904Z,0.80
2018-08-12T03:01:23.574Z,0.85
2018-08-12T03:06:27.128Z,1.02
2018-08-12T03:11:30.564Z,0.90
2018-08-12T03:16:34.337Z,0.90
2018-08-12T03:21:37.857Z,0.90
2018-08-12T03:26:41.390Z,1.10
2018-08-12T03:31:44.889Z,1.00
2018-08-12T03:36:48.373Z,0.98
2018-08-12T03:41:51.838Z,1.27
2018-08-12T03:46:55.470Z,0.85
2018-08-12T03:51:59.068Z,1.05
2018-08-12T03:57:02.644Z,1.00
2018-08-12T04:02:06.236Z,0.82
2018-08-12T04:07:09.720Z,0.82
2018-08-12T04:12:13.367Z,1.00
2018-08-12T04:17:16.822Z,0.95
2018-08-12T04:22:20.396Z,1.10
2018-08-12T04:27:23.865Z,0.85
2018-08-12T04:32:27.325Z,0.80
2018-08-12T04:37:30.841Z,0.98
2018-08-12T04:42:34.424Z,1.22
2018-08-12T04:47:38.689Z,1.10
2018-08-12T04:52:42.402Z,1.20
2018-08-12T04:57:46.840Z,1.17
2018-08-12T05:02:51.989Z,0.98
2018-08-12T05:07:55.815Z,0.88
2018-08-12T05:12:59.527Z,1.17
2018-08-12T05:18:04.528Z,1.02
2018-08-12T05:23:08.481Z,1.10
2018-08-12T05:28:17.384Z,1.12
2018-08-12T05:33:21.454Z,1.10
2018-08-12T05:38:24.927Z,1.07
2018-08-12T05:43:28.546Z,0.90
2018-08-12T05:48:32.333Z,0.90
2018-08-12T05:53:36.047Z,0.98
2018-08-12T05:58:39.552Z,1.17
2018-08-12T06:03:43.245Z,1.20
2018-08-12T06:08:46.811Z,1.10
2018-08-12T06:13:50.829Z,0.93
2018-08-12T06:18:55.085Z,1.00
2018-08-12T06:23:58.833Z,1.00
2018-08-12T06:29:02.297Z,0.85
2018-08-12T06:34:05.812Z,1.00
2018-08-12T06:39:11.492Z,1.32
2018-08-12T06:44:15.094Z,0.98
2018-08-12T06:49:18.568Z,1.00
2018-08-12T06:54:22.227Z,0.82
2018-08-12T06:59:25.860Z,0.80
2018-08-12T07:04:29.638Z,0.90
2018-08-12T07:09:33.571Z,0.90
2018-08-12T07:14:37.324Z,1.00
2018-08-12T07:19:40.832Z,0.65
2018-08-12T07:24:44.560Z,0.70
2018-08-12T07:29:48.136Z,1.22
2018-08-12T07:34:51.765Z,1.70
2018-08-12T07:39:55.194Z,1.60
2018-08-12T07:44:59.021Z,1.35
2018-08-12T07:50:02.605Z,1.20
2018-08-12T07:55:07.033Z,0.70
2018-08-12T08:00:15.192Z,0.93
2018-08-12T08:05:18.747Z,0.90
2018-08-12T08:10:22.224Z,0.80
2018-08-12T08:15:25.724Z,1.10
2018-08-12T08:20:29.262Z,1.05
2018-08-12T08:25:32.922Z,0.82
2018-08-12T08:30:36.591Z,0.70
2018-08-12T08:35:40.141Z,0.80
2018-08-12T08:40:43.825Z,0.68
2018-08-12T08:45:47.750Z,0.90
2018-08-12T08:50:51.550Z,0.72
2018-08-12T08:55:55.191Z,0.90
2018-08-12T09:00:58.617Z,0.80
2018-08-12T09:06:02.243Z,0.70
2018-08-12T09:11:06.729Z,0.78
2018-08-12T09:16:10.327Z,0.70
2018-08-12T09:21:13.839Z,0.90
2018-08-12T09:26:17.369Z,0.80
2018-08-12T09:31:21.059Z,0.65
2018-08-12T09:36:24.544Z,1.10
2018-08-12T09:41:28.108Z,0.43
2018-08-12T09:46:31.644Z,0.88
2018-08-12T09:51:35.331Z,0.50
2018-08-12T09:56:44.500Z,0.75
2018-08-12T10:01:47.988Z,0.70
2018-08-12T10:06:51.724Z,0.70
2018-08-12T10:11:55.290Z,0.98
2018-08-12T10:16:58.819Z,0.90
2018-08-12T10:22:02.985Z,0.50
2018-08-12T10:27:06.850Z,0.70
2018-08-12T10:32:10.372Z,0.68
2018-08-12T10:37:13.856Z,0.60
2018-08-12T10:42:17.449Z,0.57
2018-08-12T10:47:21.217Z,0.67
2018-08-12T10:52:24.817Z,0.70
2018-08-12T10:57:28.672Z,0.80
2018-08-12T11:02:32.229Z,0.60
2018-08-12T11:07:36.197Z,0.50
2018-08-12T11:12:39.923Z,0.80
2018-08-12T11:17:43.420Z,0.70
2018-08-12T11:22:47.171Z,1.00
2018-08-12T11:27:50.781Z,0.93
2018-08-12T11:32:54.386Z,0.88
2018-08-12T11:37:58.154Z,0.75
2018-08-12T11:43:01.735Z,0.42
2018-08-12T11:48:05.296Z,0.50
2018-08-12T11:53:09.892Z,0.50
2018-08-12T11:58:13.612Z,0.55
2018-08-12T12:03:17.111Z,0.53
2018-08-12T12:08:20.618Z,0.80
2018-08-12T12:13:24.147Z,0.95
2018-08-12T12:18:27.883Z,0.75
2018-08-12T12:23:31.474Z,0.80
2018-08-12T12:28:35.072Z,0.70
2018-08-12T12:33:38.741Z,0.60
2018-08-12T12:38:43.804Z,0.50
2018-08-12T12:43:47.717Z,0.40
2018-08-12T12:48:51.535Z,0.62
2018-08-12T12:53:55.264Z,0.70
2018-08-12T12:58:58.747Z,0.40
2018-08-12T13:04:02.394Z,0.60
2018-08-12T13:09:09.496Z,0.40
2018-08-12T13:14:13.012Z,0.40
2018-08-12T13:19:18.549Z,0.50
2018-08-12T13:24:22.140Z,0.60
2018-08-12T13:29:25.886Z,0.62
2018-08-12T13:34:30.338Z,0.60
2018-08-12T13:39:33.909Z,0.85
2018-08-12T13:44:37.737Z,0.57
2018-08-12T13:49:41.317Z,0.62
2018-08-12T13:54:45.114Z,0.57
2018-08-12T13:59:49.109Z,0.50
2018-08-12T14:04:52.606Z,0.50
2018-08-12T14:09:56.102Z,0.57
2018-08-12T14:14:59.828Z,0.42
2018-08-12T14:20:03.517Z,0.53
2018-08-12T14:25:08.257Z,0.66
2018-08-12T14:30:14.468Z,0.57
2018-08-12T14:35:18.155Z,0.30
2018-08-12T14:40:21.669Z,0.60
2018-08-12T14:45:25.175Z,0.60
2018-08-12T14:50:28.803Z,0.50
2018-08-12T14:55:32.521Z,0.55
2018-08-12T15:00:36.129Z,0.60
2018-08-12T15:05:39.785Z,0.55
2018-08-12T15:10:43.478Z,0.60
2018-08-12T15:15:47.302Z,0.60
2018-08-12T15:20:50.949Z,0.70
2018-08-12T15:25:54.465Z,1.12
2018-08-12T15:30:58.058Z,0.60
2018-08-12T15:36:01.649Z,0.53
2018-08-12T15:41:05.192Z,0.60
2018-08-12T15:46:08.729Z,0.40
2018-08-12T15:51:12.388Z,0.50
2018-08-12T15:56:16.549Z,0.60
2018-08-12T16:01:20.373Z,0.60
2018-08-12T16:06:24.910Z,0.42
2018-08-12T16:11:28.485Z,0.50
2018-08-12T16:16:32.130Z,0.42
2018-08-12T16:21:35.731Z,0.82
2018-08-12T16:26:39.373Z,0.68
2018-08-12T16:31:42.950Z,0.70
2018-08-12T16:36:47.072Z,0.42
2018-08-12T16:41:51.656Z,0.53
2018-08-12T16:46:55.249Z,0.50
2018-08-12T16:51:59.382Z,0.37
2018-08-12T16:57:03.750Z,0.60
2018-08-12T17:02:07.983Z,0.62
2018-08-12T17:07:12.706Z,0.50
2018-08-12T17:12:17.700Z,0.40
2018-08-12T17:17:21.524Z,0.70
2018-08-12T17:22:26.206Z,0.68
2018-08-12T17:27:31.226Z,0.50
2018-08-12T17:32:35.173Z,0.42
2018-08-12T17:37:39.486Z,0.60
2018-08-12T17:42:43.460Z,0.60
2018-08-12T17:47:48.400Z,0.72
2018-08-12T17:52:52.559Z,0.47
2018-08-12T17:57:56.047Z,0.60
2018-08-12T18:02:59.995Z,0.60
2018-08-12T18:08:04.049Z,0.53
2018-08-12T18:13:07.545Z,0.42
2018-08-12T18:18:11.130Z,0.57
2018-08-12T18:23:14.877Z,0.60
2018-08-12T18:28:18.528Z,0.50
2018-08-12T18:33:22.825Z,0.60
2018-08-12T18:38:26.377Z,0.57
2018-08-12T18:43:30.059Z,0.90
2018-08-12T18:48:33.641Z,0.80
2018-08-12T18:53:37.580Z,0.68
2018-08-12T18:58:41.202Z,0.82
2018-08-12T19:03:45.108Z,1.00
2018-08-12T19:08:48.677Z,0.85
2018-08-12T19:13:52.901Z,1.10
2018-08-12T19:18:57.106Z,0.95
2018-08-12T19:24:00.540Z,0.88
2018-08-12T19:29:04.233Z,1.20
2018-08-12T19:34:08.037Z,0.90
2018-08-12T19:39:12.540Z,1.20
2018-08-12T19:44:16.124Z,1.20
2018-08-12T19:49:20.169Z,1.40
2018-08-12T19:54:24.679Z,1.20
2018-08-12T19:59:28.453Z,1.02
2018-08-12T20:04:32.017Z,0.90
2018-08-12T20:09:35.528Z,1.02
2018-08-12T20:14:39.122Z,0.90
2018-08-12T20:19:42.581Z,0.95
2018-08-12T20:24:46.202Z,1.00
2018-08-12T20:29:49.801Z,0.98
2018-08-12T20:34:53.404Z,0.98
2018-08-12T20:39:56.945Z,0.98
2018-08-12T20:45:00.678Z,1.05
2018-08-12T20:50:05.189Z,1.00
2018-08-12T20:55:09.241Z,1.05
2018-08-12T21:00:12.899Z,1.00
2018-08-12T21:05:16.480Z,0.88
2018-08-12T21:10:20.190Z,0.93
2018-08-12T21:15:24.089Z,0.70
2018-08-12T21:20:27.636Z,0.90
2018-08-12T21:25:31.424Z,1.17
2018-08-12T21:30:34.921Z,0.85
2018-08-12T21:35:38.424Z,1.10
2018-08-12T21:40:41.926Z,0.90
2018-08-12T21:45:45.731Z,0.90
2018-08-12T21:50:49.556Z,1.00
2018-08-12T21:55:53.290Z,0.93
2018-08-12T22:00:57.653Z,0.80
2018-08-12T22:06:01.220Z,0.78
2018-08-12T22:11:05.021Z,0.90
2018-08-12T22:16:08.885Z,1.20
2018-08-12T22:21:12.501Z,0.80
2018-08-12T22:26:16.382Z,0.88
2018-08-12T22:31:20.167Z,0.80
2018-08-12T22:36:24.002Z,1.00
2018-08-12T22:41:27.688Z,2.00
2018-08-12T22:46:31.377Z,2.30
2018-08-12T22:51:35.130Z,2.77
2018-08-12T22:56:39.157Z,2.52
2018-08-12T23:01:42.761Z,2.77
2018-08-12T23:06:46.250Z,2.52
2018-08-12T23:11:49.974Z,2.60
2018-08-12T23:16:56.987Z,2.50
2018-08-12T23:22:00.509Z,1.95
2018-08-12T23:27:04.328Z,2.10
2018-08-12T23:32:07.921Z,2.08
2018-08-12T23:37:11.532Z,2.12
2018-08-12T23:42:15.121Z,1.77
2018-08-12T23:47:18.632Z,1.80
2018-08-12T23:52:22.089Z,1.55
2018-08-12T23:57:25.726Z,1.67
